createdAt,value
2017-09-22T00:01:20.847Z,81.51
2017-09-22T00:03:48.250Z,81.53
2017-09-22T00:06:15.645Z,81.53
2017-09-22T00:08:43.054Z,81.63
2017-09-22T00:11:10.456Z,81.82
2017-09-22T00:13:38.019Z,81.83
2017-09-22T00:16:05.418Z,81.99
2017-09-22T00:18:32.814Z,82.03
2017-09-22T00:21:00.211Z,82.16
2017-09-22T00:23:27.614Z,82.27
2017-09-22T00:25:55.016Z,82.24
2017-09-22T00:28:22.415Z,82.26
2017-09-22T00:30:49.918Z,82.23
2017-09-22T00:33:17.314Z,82.26
2017-09-22T00:35:44.711Z,82.18
2017-09-22T00:38:12.127Z,82.33
2017-09-22T00:40:39.523Z,82.60
2017-09-22T00:43:06.931Z,82.66
2017-09-22T00:45:34.329Z,82.83
2017-09-22T00:48:01.838Z,82.84
2017-09-22T00:50:29.236Z,82.75
2017-09-22T00:52:56.636Z,82.78
2017-09-22T00:55:24.033Z,82.87
2017-09-22T00:57:51.436Z,82.96
2017-09-22T01:00:18.835Z,82.93
2017-09-22T01:02:46.238Z,83.14
2017-09-22T01:05:13.647Z,83.14
2017-09-22T01:07:41.038Z,83.19
2017-09-22T01:10:08.434Z,83.02
2017-09-22T01:12:35.834Z,83.06
2017-09-22T01:15:03.236Z,83.15
2017-09-22T01:17:30.645Z,83.04
2017-09-22T01:19:58.032Z,83.04
2017-09-22T01:22:25.463Z,83.09
2017-09-22T01:24:53.715Z,83.20
2017-09-22T01:27:21.114Z,83.35
2017-09-22T01:29:48.523Z,83.38
2017-09-22T01:32:15.922Z,83.42
2017-09-22T01:34:43.327Z,83.52
2017-09-22T01:37:10.727Z,83.57
2017-09-22T01:39:38.138Z,83.70
2017-09-22T01:42:05.540Z,83.71
2017-09-22T01:44:32.930Z,84.00
2017-09-22T01:47:00.335Z,83.86
2017-09-22T01:49:27.730Z,83.83
2017-09-22T01:51:55.132Z,84.02
2017-09-22T01:54:22.533Z,84.03
2017-09-22T01:56:49.931Z,83.92
2017-09-22T01:59:17.327Z,83.94
2017-09-22T02:01:44.734Z,84.22
2017-09-22T02:04:12.135Z,83.75
2017-09-22T02:06:39.530Z,83.66
2017-09-22T02:09:06.934Z,83.73
2017-09-22T02:11:34.333Z,83.48
2017-09-22T02:14:01.742Z,83.36
2017-09-22T02:16:29.134Z,83.63
2017-09-22T02:18:56.537Z,83.51
2017-09-22T02:21:23.939Z,83.83
2017-09-22T02:23:51.338Z,83.59
2017-09-22T02:26:18.752Z,83.37
2017-09-22T02:28:46.141Z,83.29
2017-09-22T02:31:13.552Z,83.44
2017-09-22T02:33:40.946Z,83.42
2017-09-22T02:36:08.355Z,83.24
2017-09-22T02:38:35.754Z,83.43
2017-09-22T02:41:03.152Z,83.87
2017-09-22T02:43:30.558Z,83.49
2017-09-22T02:45:57.958Z,83.34
2017-09-22T02:48:25.371Z,83.40
2017-09-22T02:50:52.765Z,83.62
2017-09-22T02:53:20.174Z,83.87
2017-09-22T02:55:47.562Z,84.08
2017-09-22T02:58:14.955Z,84.38
2017-09-22T03:00:42.406Z,84.58
2017-09-22T03:03:09.798Z,85.37
2017-09-22T03:05:37.198Z,85.62
2017-09-22T03:08:04.595Z,85.21
2017-09-22T03:10:31.998Z,84.87
2017-09-22T03:12:59.398Z,84.96
2017-09-22T03:15:26.795Z,85.06
2017-09-22T03:17:54.194Z,85.16
2017-09-22T03:20:21.586Z,85.40
2017-09-22T03:22:48.982Z,85.52
2017-09-22T03:25:16.383Z,85.61
2017-09-22T03:27:43.782Z,85.59
2017-09-22T03:30:11.186Z,85.54
2017-09-22T03:32:38.586Z,85.55
2017-09-22T03:35:05.987Z,85.50
2017-09-22T03:37:33.378Z,85.63
2017-09-22T03:40:00.786Z,85.76
2017-09-22T03:42:28.182Z,85.86
2017-09-22T03:44:55.599Z,85.90
2017-09-22T03:47:22.995Z,86.00
2017-09-22T03:49:50.395Z,86.18
2017-09-22T03:52:17.795Z,86.07
2017-09-22T03:54:45.195Z,86.06
2017-09-22T03:57:12.599Z,86.12
2017-09-22T03:59:39.994Z,86.06
2017-09-22T04:02:07.394Z,86.10
2017-09-22T04:04:34.794Z,86.23
2017-09-22T04:07:02.202Z,86.31
2017-09-22T04:09:29.595Z,86.30
2017-09-22T04:11:56.994Z,86.28
2017-09-22T04:14:24.390Z,86.46
2017-09-22T04:16:51.799Z,86.50
2017-09-22T04:19:19.193Z,86.55
2017-09-22T04:21:46.598Z,86.58
2017-09-22T04:24:13.989Z,86.52
2017-09-22T04:26:41.396Z,86.73
2017-09-22T04:29:08.806Z,87.04
2017-09-22T04:31:36.200Z,87.08
2017-09-22T04:34:03.614Z,87.02
2017-09-22T04:36:31.011Z,87.12
2017-09-22T04:38:58.402Z,87.00
2017-09-22T04:41:25.811Z,86.85
2017-09-22T04:43:53.204Z,86.72
2017-09-22T04:46:20.598Z,86.85
2017-09-22T04:48:47.998Z,86.88
2017-09-22T04:51:16.327Z,86.99
2017-09-22T04:53:43.731Z,87.04
2017-09-22T04:56:11.125Z,87.19
2017-09-22T04:58:38.522Z,87.48
2017-09-22T05:01:05.939Z,87.49
2017-09-22T05:03:33.333Z,87.73
2017-09-22T05:06:00.731Z,87.80
2017-09-22T05:08:28.126Z,87.89
2017-09-22T05:10:55.544Z,87.77
2017-09-22T05:13:22.935Z,87.91
2017-09-22T05:15:50.331Z,87.62
2017-09-22T05:18:17.730Z,87.48
2017-09-22T05:20:45.131Z,87.43
2017-09-22T05:23:12.543Z,87.48
2017-09-22T05:25:39.933Z,87.45
2017-09-22T05:28:07.346Z,87.38
2017-09-22T05:30:34.744Z,87.50
2017-09-22T05:33:02.149Z,87.55
2017-09-22T05:35:29.555Z,87.95
2017-09-22T05:37:56.958Z,88.36
2017-09-22T05:40:24.376Z,88.42
2017-09-22T05:42:51.772Z,88.39
2017-09-22T05:45:19.191Z,88.31
2017-09-22T05:47:46.587Z,88.29
2017-09-22T05:50:13.989Z,88.37
2017-09-22T05:52:41.390Z,88.41
2017-09-22T05:55:08.790Z,88.51
2017-09-22T05:57:36.185Z,88.62
2017-09-22T06:00:03.582Z,88.68
2017-09-22T06:02:30.999Z,88.80
2017-09-22T06:04:58.391Z,88.76
2017-09-22T06:07:25.822Z,88.85
2017-09-22T06:09:53.260Z,88.86
2017-09-22T06:12:20.627Z,88.84
2017-09-22T06:14:48.031Z,88.92
2017-09-22T06:17:15.428Z,88.96
2017-09-22T06:19:43.772Z,89.01
2017-09-22T06:22:11.162Z,89.05
2017-09-22T06:24:38.563Z,89.07
2017-09-22T06:27:05.963Z,89.09
2017-09-22T06:29:33.354Z,89.12
2017-09-22T06:32:00.774Z,89.08
2017-09-22T06:34:28.166Z,89.08
2017-09-22T06:36:55.600Z,89.10
2017-09-22T06:39:22.994Z,89.01
2017-09-22T06:41:50.393Z,88.99
2017-09-22T06:44:17.791Z,89.07
2017-09-22T06:46:45.182Z,89.14
2017-09-22T06:49:12.582Z,89.14
2017-09-22T06:51:39.998Z,89.06
2017-09-22T06:54:07.414Z,89.04
2017-09-22T06:56:34.806Z,89.04
2017-09-22T06:59:02.203Z,88.97
2017-09-22T07:01:29.606Z,88.85
2017-09-22T07:03:57.003Z,88.84
2017-09-22T07:06:24.402Z,88.75
2017-09-22T07:08:51.803Z,88.75
2017-09-22T07:11:19.211Z,88.73
2017-09-22T07:13:46.607Z,88.58
2017-09-22T07:16:14.006Z,88.35
2017-09-22T07:18:41.438Z,88.47
2017-09-22T07:21:08.807Z,88.51
2017-09-22T07:23:36.210Z,88.40
2017-09-22T07:26:03.614Z,88.40
2017-09-22T07:28:31.007Z,88.11
2017-09-22T07:30:58.414Z,87.61
2017-09-22T07:33:25.807Z,86.14
2017-09-22T07:35:53.219Z,85.63
2017-09-22T07:38:20.617Z,85.45
2017-09-22T07:40:48.014Z,84.63
2017-09-22T07:43:15.426Z,83.98
2017-09-22T07:45:42.829Z,83.87
2017-09-22T07:48:10.246Z,83.29
2017-09-22T07:50:37.645Z,82.85
2017-09-22T07:53:05.038Z,81.36
2017-09-22T07:55:32.442Z,81.06
2017-09-22T07:57:59.844Z,80.85
2017-09-22T08:00:27.266Z,79.79
2017-09-22T08:02:54.656Z,79.48
2017-09-22T08:05:22.045Z,80.11
2017-09-22T08:07:49.448Z,79.25
2017-09-22T08:10:16.845Z,79.78
2017-09-22T08:12:44.252Z,79.33
2017-09-22T08:15:11.647Z,78.90
2017-09-22T08:17:39.043Z,78.98
2017-09-22T08:20:06.442Z,79.85
2017-09-22T08:22:33.841Z,79.55
2017-09-22T08:25:01.255Z,78.62
2017-09-22T08:27:28.651Z,78.44
2017-09-22T08:29:56.052Z,77.65
2017-09-22T08:32:23.451Z,77.54
2017-09-22T08:34:50.857Z,75.21
2017-09-22T08:37:18.267Z,75.65
2017-09-22T08:39:45.683Z,73.06
2017-09-22T08:42:13.083Z,72.46
2017-09-22T08:44:40.483Z,72.24
2017-09-22T08:47:07.880Z,72.22
2017-09-22T08:49:35.287Z,72.79
2017-09-22T08:52:02.694Z,71.71
2017-09-22T08:54:30.090Z,70.85
2017-09-22T08:56:57.498Z,71.06
2017-09-22T08:59:24.890Z,68.22
2017-09-22T09:01:52.311Z,69.44
2017-09-22T09:04:19.702Z,69.52
2017-09-22T09:06:47.102Z,67.93
2017-09-22T09:09:14.514Z,68.20
2017-09-22T09:11:41.928Z,68.74
2017-09-22T09:14:09.335Z,68.26
2017-09-22T09:16:36.738Z,68.46
2017-09-22T09:19:04.131Z,68.02
2017-09-22T09:21:31.537Z,68.56
2017-09-22T09:23:58.931Z,67.97
2017-09-22T09:26:26.334Z,68.39
2017-09-22T09:28:53.722Z,67.88
2017-09-22T09:31:21.123Z,65.60
2017-09-22T09:33:48.527Z,66.69
2017-09-22T09:36:15.927Z,68.13
2017-09-22T09:38:43.339Z,66.72
2017-09-22T09:41:10.735Z,67.17
2017-09-22T09:43:38.139Z,65.61
2017-09-22T09:46:05.539Z,64.39
2017-09-22T09:48:32.936Z,63.21
2017-09-22T09:51:00.348Z,61.14
2017-09-22T09:53:27.748Z,61.95
2017-09-22T09:55:55.147Z,60.40
2017-09-22T09:58:22.553Z,60.66
2017-09-22T10:00:49.947Z,61.68
2017-09-22T10:03:17.356Z,60.34
2017-09-22T10:05:44.751Z,61.58
2017-09-22T10:08:12.158Z,61.95
2017-09-22T10:10:39.562Z,60.20
2017-09-22T10:13:06.963Z,60.08
2017-09-22T10:15:34.378Z,59.96
2017-09-22T10:18:01.774Z,59.92
2017-09-22T10:20:29.169Z,60.10
2017-09-22T10:22:56.668Z,61.47
2017-09-22T10:25:24.066Z,58.93
2017-09-22T10:27:51.470Z,57.52
2017-09-22T10:30:18.867Z,58.07
2017-09-22T10:32:46.275Z,56.73
2017-09-22T10:35:13.670Z,57.38
2017-09-22T10:37:41.066Z,57.16
2017-09-22T10:40:08.501Z,55.92
2017-09-22T10:42:35.891Z,56.06
2017-09-22T10:45:03.286Z,56.28
2017-09-22T10:47:30.697Z,55.61
2017-09-22T10:49:58.091Z,56.86
2017-09-22T10:52:25.507Z,57.83
2017-09-22T10:54:52.910Z,57.63
2017-09-22T10:57:20.308Z,55.02
2017-09-22T10:59:47.714Z,54.80
2017-09-22T11:02:15.115Z,56.11
2017-09-22T11:04:42.538Z,54.07
2017-09-22T11:07:09.936Z,53.36
2017-09-22T11:09:37.332Z,53.35
2017-09-22T11:12:04.734Z,54.08
2017-09-22T11:14:32.131Z,55.75
2017-09-22T11:16:59.542Z,54.32
2017-09-22T11:19:26.939Z,55.52
2017-09-22T11:21:54.339Z,56.51
2017-09-22T11:24:21.741Z,53.53
2017-09-22T11:26:49.136Z,53.57
2017-09-22T11:29:16.547Z,53.52
2017-09-22T11:31:43.406Z,51.13
2017-09-22T11:34:10.246Z,52.04
2017-09-22T11:36:37.655Z,53.74
2017-09-22T11:39:05.049Z,53.69
2017-09-22T11:41:32.463Z,51.97
2017-09-22T11:43:59.879Z,52.17
2017-09-22T11:46:27.274Z,52.04
2017-09-22T11:48:54.681Z,52.04
2017-09-22T11:51:22.072Z,52.59
2017-09-22T11:53:49.493Z,53.19
2017-09-22T11:56:16.883Z,56.60
2017-09-22T11:58:44.280Z,53.48
2017-09-22T12:01:11.681Z,54.07
2017-09-22T12:03:39.077Z,53.47
2017-09-22T12:06:06.478Z,53.38
2017-09-22T12:08:33.884Z,55.32
2017-09-22T12:11:01.342Z,54.86
2017-09-22T12:13:28.742Z,55.04
2017-09-22T12:15:56.151Z,53.71
2017-09-22T12:18:23.598Z,54.97
2017-09-22T12:20:50.992Z,54.13
2017-09-22T12:23:18.395Z,51.79
2017-09-22T12:25:45.835Z,51.37
2017-09-22T12:28:13.250Z,50.84
2017-09-22T12:30:40.639Z,51.68
2017-09-22T12:33:08.033Z,52.00
2017-09-22T12:35:35.435Z,52.55
2017-09-22T12:38:02.830Z,51.50
2017-09-22T12:40:30.246Z,51.54
2017-09-22T12:42:57.645Z,50.99
2017-09-22T12:45:25.184Z,52.06
2017-09-22T12:47:52.596Z,52.00
2017-09-22T12:50:19.988Z,51.54
2017-09-22T12:52:47.400Z,50.86
2017-09-22T12:55:14.858Z,52.33
2017-09-22T12:57:42.256Z,53.05
2017-09-22T13:00:09.663Z,50.39
2017-09-22T13:02:37.058Z,50.18
2017-09-22T13:05:04.460Z,49.42
2017-09-22T13:07:31.865Z,47.22
2017-09-22T13:09:59.262Z,48.94
2017-09-22T13:12:26.666Z,49.43
2017-09-22T13:14:54.054Z,49.13
2017-09-22T13:17:21.476Z,50.65
2017-09-22T13:19:48.946Z,47.23
2017-09-22T13:22:16.360Z,47.61
2017-09-22T13:24:43.755Z,46.54
2017-09-22T13:27:11.191Z,46.11
2017-09-22T13:29:38.599Z,47.32
2017-09-22T13:32:06.024Z,45.86
2017-09-22T13:34:33.436Z,46.96
2017-09-22T13:37:00.831Z,45.43
2017-09-22T13:39:28.276Z,45.35
2017-09-22T13:41:55.674Z,45.63
2017-09-22T13:44:23.089Z,45.83
2017-09-22T13:46:50.535Z,47.02
2017-09-22T13:49:17.948Z,47.71
2017-09-22T13:51:45.363Z,49.33
2017-09-22T13:54:12.763Z,50.11
2017-09-22T13:56:40.176Z,49.49
2017-09-22T13:59:07.598Z,50.41
2017-09-22T14:01:35.026Z,50.81
2017-09-22T14:04:02.419Z,51.87
2017-09-22T14:06:29.827Z,52.41
2017-09-22T14:08:57.227Z,53.87
2017-09-22T14:11:24.638Z,52.89
2017-09-22T14:13:52.081Z,52.78
2017-09-22T14:16:19.455Z,53.33
2017-09-22T14:18:46.868Z,54.29
2017-09-22T14:21:21.767Z,54.43
2017-09-22T14:23:49.174Z,53.70
2017-09-22T14:26:16.571Z,55.08
2017-09-22T14:28:43.974Z,54.30
2017-09-22T14:31:11.375Z,55.35
2017-09-22T14:33:38.777Z,55.28
2017-09-22T14:36:06.179Z,55.96
2017-09-22T14:38:33.575Z,55.82
2017-09-22T14:41:01.425Z,55.95
2017-09-22T14:43:28.834Z,55.94
2017-09-22T14:45:56.246Z,58.04
2017-09-22T14:48:23.657Z,55.44
2017-09-22T14:50:51.051Z,56.38
2017-09-22T14:53:18.459Z,56.57
2017-09-22T14:55:45.881Z,56.17
2017-09-22T14:58:13.342Z,55.81
2017-09-22T15:00:40.756Z,56.59
2017-09-22T15:03:08.154Z,56.30
2017-09-22T15:05:35.602Z,56.66
2017-09-22T15:08:03.006Z,57.09
2017-09-22T15:10:30.407Z,56.24
2017-09-22T15:12:57.811Z,56.54
2017-09-22T15:15:25.214Z,57.87
2017-09-22T15:17:52.631Z,58.62
2017-09-22T15:20:20.043Z,55.68
2017-09-22T15:22:47.453Z,55.72
2017-09-22T15:25:14.860Z,56.60
2017-09-22T15:27:42.252Z,55.87
2017-09-22T15:30:09.713Z,58.62
2017-09-22T15:32:37.102Z,58.08
2017-09-22T15:35:04.506Z,59.26
2017-09-22T15:37:31.918Z,59.36
2017-09-22T15:39:59.319Z,58.30
2017-09-22T15:42:26.722Z,58.86
2017-09-22T15:44:54.127Z,57.58
2017-09-22T15:47:21.532Z,57.06
2017-09-22T15:49:48.920Z,57.76
2017-09-22T15:52:16.325Z,59.89
2017-09-22T15:54:43.716Z,58.11
2017-09-22T15:57:11.870Z,59.94
2017-09-22T15:59:39.270Z,59.47
2017-09-22T16:02:06.679Z,59.73
2017-09-22T16:04:34.971Z,61.47
2017-09-22T16:07:02.368Z,62.07
2017-09-22T16:09:29.853Z,63.51
2017-09-22T16:11:57.238Z,64.00
2017-09-22T16:14:24.639Z,64.37
2017-09-22T16:16:52.034Z,62.71
2017-09-22T16:19:19.442Z,61.35
2017-09-22T16:21:47.683Z,62.56
2017-09-22T16:24:15.083Z,64.71
2017-09-22T16:26:42.488Z,65.91
2017-09-22T16:29:09.879Z,66.57
2017-09-22T16:31:37.287Z,66.76
2017-09-22T16:34:04.704Z,67.28
2017-09-22T16:36:32.139Z,67.70
2017-09-22T16:38:59.536Z,67.70
2017-09-22T16:41:26.935Z,67.95
2017-09-22T16:43:54.348Z,68.04
2017-09-22T16:46:21.754Z,68.25
2017-09-22T16:48:49.147Z,68.51
2017-09-22T16:51:16.544Z,68.97
2017-09-22T16:53:43.952Z,68.77
2017-09-22T16:56:11.347Z,68.60
2017-09-22T16:58:38.749Z,68.49
2017-09-22T17:01:06.163Z,67.95
2017-09-22T17:03:33.559Z,68.93
2017-09-22T17:06:00.964Z,70.55
2017-09-22T17:08:28.368Z,71.30
2017-09-22T17:10:55.778Z,72.94
2017-09-22T17:13:23.177Z,73.91
2017-09-22T17:15:50.568Z,73.43
2017-09-22T17:18:17.967Z,75.36
2017-09-22T17:20:45.367Z,75.37
2017-09-22T17:23:12.770Z,75.81
2017-09-22T17:25:40.162Z,76.78
2017-09-22T17:28:07.578Z,76.65
2017-09-22T17:30:34.975Z,77.50
2017-09-22T17:33:02.371Z,78.58
2017-09-22T17:35:29.773Z,78.41
2017-09-22T17:37:57.170Z,78.23
2017-09-22T17:40:24.573Z,78.82
2017-09-22T17:42:51.975Z,79.27
2017-09-22T17:45:19.384Z,79.54
2017-09-22T17:47:46.782Z,79.64
2017-09-22T17:50:14.194Z,79.85
2017-09-22T17:52:41.604Z,80.00
2017-09-22T17:55:09.006Z,80.11
2017-09-22T17:57:36.405Z,80.12
2017-09-22T18:00:03.815Z,80.28
2017-09-22T18:02:31.234Z,79.37
2017-09-22T18:04:58.629Z,80.18
2017-09-22T18:07:26.021Z,80.18
2017-09-22T18:09:53.422Z,80.61
2017-09-22T18:12:21.750Z,80.64
2017-09-22T18:14:50.034Z,80.66
2017-09-22T18:17:17.761Z,80.77
2017-09-22T18:19:46.085Z,81.16
2017-09-22T18:22:13.478Z,81.26
2017-09-22T18:24:40.882Z,81.46
2017-09-22T18:27:08.282Z,81.67
2017-09-22T18:29:35.678Z,81.94
2017-09-22T18:32:03.083Z,82.12
2017-09-22T18:34:30.486Z,82.25
2017-09-22T18:36:57.894Z,82.23
2017-09-22T18:39:25.294Z,82.27
2017-09-22T18:41:52.687Z,82.33
2017-09-22T18:44:20.090Z,82.23
2017-09-22T18:46:47.483Z,82.30
2017-09-22T18:49:14.878Z,82.18
2017-09-22T18:51:42.276Z,82.27
2017-09-22T18:54:09.684Z,82.61
2017-09-22T18:56:37.079Z,82.60
2017-09-22T18:59:04.474Z,82.53
2017-09-22T19:01:31.877Z,82.71
2017-09-22T19:03:59.278Z,82.64
2017-09-22T19:06:26.674Z,82.79
2017-09-22T19:08:54.068Z,82.81
2017-09-22T19:11:21.478Z,82.84
2017-09-22T19:13:48.870Z,82.84
2017-09-22T19:16:16.266Z,83.04
2017-09-22T19:18:43.671Z,82.98
2017-09-22T19:21:11.067Z,82.98
2017-09-22T19:23:38.472Z,82.55
2017-09-22T19:26:05.866Z,82.53
2017-09-22T19:28:33.280Z,82.75
2017-09-22T19:31:00.671Z,82.50
2017-09-22T19:33:28.067Z,82.76
2017-09-22T19:35:55.475Z,83.28
2017-09-22T19:38:22.867Z,83.19
2017-09-22T19:40:50.268Z,84.22
2017-09-22T19:43:17.662Z,84.22
2017-09-22T19:45:45.071Z,83.88
2017-09-22T19:48:12.474Z,83.74
2017-09-22T19:50:39.870Z,83.66
2017-09-22T19:53:07.284Z,83.58
2017-09-22T19:55:34.679Z,83.41
2017-09-22T19:58:02.087Z,83.55
2017-09-22T20:00:29.482Z,83.67
2017-09-22T20:02:56.897Z,83.66
2017-09-22T20:05:24.296Z,83.81
2017-09-22T20:07:51.693Z,83.81
2017-09-22T20:10:19.102Z,83.91
2017-09-22T20:12:46.497Z,84.02
2017-09-22T20:15:13.930Z,84.12
2017-09-22T20:17:41.322Z,84.23
2017-09-22T20:20:08.729Z,84.25
2017-09-22T20:22:36.127Z,84.40
2017-09-22T20:25:03.526Z,84.56
2017-09-22T20:27:30.934Z,84.73
2017-09-22T20:29:58.330Z,84.81
2017-09-22T20:32:25.742Z,84.81
2017-09-22T20:34:53.143Z,84.69
2017-09-22T20:37:20.542Z,84.76
2017-09-22T20:39:47.942Z,85.00
2017-09-22T20:42:15.339Z,84.57
2017-09-22T20:44:42.738Z,84.79
2017-09-22T20:47:10.134Z,85.00
2017-09-22T20:49:37.532Z,85.11
2017-09-22T20:52:04.934Z,85.17
2017-09-22T20:54:32.329Z,85.12
2017-09-22T20:56:59.749Z,85.07
2017-09-22T20:59:27.173Z,84.99
2017-09-22T21:01:54.562Z,85.08
2017-09-22T21:04:21.961Z,84.98
2017-09-22T21:06:49.359Z,84.90
2017-09-22T21:09:16.757Z,84.75
2017-09-22T21:11:44.150Z,84.56
2017-09-22T21:14:11.566Z,84.64
2017-09-22T21:16:38.963Z,84.76
2017-09-22T21:19:06.363Z,84.78
2017-09-22T21:21:33.766Z,84.92
2017-09-22T21:24:01.201Z,85.05
2017-09-22T21:26:28.572Z,85.16
2017-09-22T21:28:55.969Z,85.17
2017-09-22T21:31:23.367Z,85.19
2017-09-22T21:33:50.771Z,85.27
2017-09-22T21:36:18.166Z,85.37
2017-09-22T21:38:45.567Z,85.37
2017-09-22T21:41:12.966Z,85.56
2017-09-22T21:43:40.366Z,85.60
2017-09-22T21:46:07.764Z,85.75
2017-09-22T21:48:35.166Z,85.74
2017-09-22T21:51:02.570Z,85.73
2017-09-22T21:53:29.983Z,85.85
2017-09-22T21:55:57.373Z,85.87
2017-09-22T21:58:24.770Z,85.70
2017-09-22T22:00:52.176Z,85.61
2017-09-22T22:03:25.274Z,85.48
2017-09-22T22:05:52.687Z,85.37
2017-09-22T22:08:20.083Z,85.35
2017-09-22T22:10:47.480Z,85.29
2017-09-22T22:13:14.878Z,85.28
2017-09-22T22:15:42.274Z,85.34
2017-09-22T22:18:09.686Z,85.61
2017-09-22T22:20:37.074Z,85.93
2017-09-22T22:23:04.468Z,85.96
2017-09-22T22:25:31.870Z,86.27
2017-09-22T22:27:59.263Z,86.92
2017-09-22T22:30:26.676Z,87.11
2017-09-22T22:32:54.071Z,86.75
2017-09-22T22:35:21.466Z,87.55
2017-09-22T22:37:48.870Z,87.24
2017-09-22T22:40:16.266Z,87.12
2017-09-22T22:42:43.678Z,87.10
2017-09-22T22:45:11.071Z,87.11
2017-09-22T22:47:38.474Z,87.14
2017-09-22T22:50:05.883Z,87.39
2017-09-22T22:52:33.278Z,87.84
2017-09-22T22:55:00.674Z,87.89
2017-09-22T22:57:28.091Z,87.86
2017-09-22T22:59:55.486Z,88.21
2017-09-22T23:02:22.882Z,88.18
2017-09-22T23:04:50.302Z,88.40
2017-09-22T23:07:17.698Z,88.20
2017-09-22T23:09:45.098Z,88.39
2017-09-22T23:12:12.503Z,88.31
2017-09-22T23:14:39.900Z,88.25
2017-09-22T23:17:07.294Z,88.23
2017-09-22T23:19:34.702Z,88.33
2017-09-22T23:22:02.102Z,88.12
2017-09-22T23:24:29.495Z,87.96
2017-09-22T23:26:56.906Z,88.03
2017-09-22T23:29:24.619Z,88.04
2017-09-22T23:31:52.017Z,88.00
2017-09-22T23:34:19.427Z,87.99
2017-09-22T23:36:46.824Z,87.89
2017-09-22T23:39:14.225Z,87.93
2017-09-22T23:41:41.642Z,88.03
2017-09-22T23:44:09.049Z,87.90
2017-09-22T23:46:36.454Z,87.88
2017-09-22T23:49:03.875Z,87.46
2017-09-22T23:51:31.270Z,87.41
2017-09-22T23:53:58.666Z,87.36
2017-09-22T23:56:26.074Z,87.21
2017-09-22T23:58:53.514Z,87.23
